createdAt,value
2022-10-20T00:01:31.547Z,60.93
2022-10-20T00:04:00.572Z,60.84
2022-10-20T00:06:35.137Z,61.02
2022-10-20T00:09:06.229Z,61.04
2022-10-20T00:11:35.901Z,61.08
2022-10-20T00:14:06.949Z,61.37
2022-10-20T00:16:40.538Z,61.90
2022-10-20T00:19:09.683Z,61.94
2022-10-20T00:21:40.226Z,62.27
2022-10-20T00:24:09.752Z,62.14
2022-10-20T00:26:39.112Z,61.98
2022-10-20T00:29:08.348Z,62.15
2022-10-20T00:31:37.534Z,61.68
2022-10-20T00:34:06.886Z,61.48
2022-10-20T00:36:35.774Z,61.36
2022-10-20T00:39:07.895Z,61.57
2022-10-20T00:41:37.353Z,61.62
2022-10-20T00:44:44.124Z,61.68
2022-10-20T00:47:18.616Z,61.88
2022-10-20T00:49:48.161Z,61.73
2022-10-20T00:52:18.932Z,61.98
2022-10-20T00:54:48.419Z,61.89
2022-10-20T00:57:18.103Z,62.09
2022-10-20T00:59:47.822Z,61.95
2022-10-20T01:02:18.106Z,61.93
2022-10-20T01:04:47.357Z,62.15
2022-10-20T01:07:16.427Z,62.29
2022-10-20T01:09:48.567Z,62.36
2022-10-20T01:12:28.897Z,62.52
2022-10-20T01:15:22.438Z,62.89
2022-10-20T01:18:02.787Z,63.01
2022-10-20T01:21:09.840Z,63.15
2022-10-20T01:24:04.361Z,63.23
2022-10-20T01:27:05.978Z,63.45
2022-10-20T01:29:53.782Z,63.87
2022-10-20T01:32:29.293Z,63.94
2022-10-20T01:35:06.196Z,64.04
2022-10-20T01:37:49.602Z,64.26
2022-10-20T01:40:28.942Z,64.75
2022-10-20T01:43:07.907Z,64.92
2022-10-20T01:45:43.175Z,65.24
2022-10-20T01:48:18.163Z,65.75
2022-10-20T01:50:49.687Z,65.99
2022-10-20T01:56:05.157Z,66.11
2022-10-20T01:59:09.555Z,67.01
2022-10-20T02:02:02.139Z,66.94
2022-10-20T02:04:37.515Z,67.20
2022-10-20T02:07:16.040Z,67.76
2022-10-20T02:09:51.139Z,67.87
2022-10-20T02:12:26.247Z,67.99
2022-10-20T02:14:57.101Z,68.04
2022-10-20T02:17:40.489Z,68.94
2022-10-20T02:20:12.792Z,68.32
2022-10-20T02:22:42.993Z,68.40
2022-10-20T02:25:24.929Z,68.94
2022-10-20T02:27:56.608Z,68.71
2022-10-20T02:30:35.914Z,69.11
2022-10-20T02:33:10.272Z,69.53
2022-10-20T02:35:44.669Z,69.43
2022-10-20T02:41:09.308Z,70.16
2022-10-20T02:43:41.674Z,70.29
2022-10-20T02:46:11.972Z,70.38
2022-10-20T02:48:44.298Z,70.75
2022-10-20T02:51:21.616Z,70.42
2022-10-20T02:53:56.819Z,71.08
2022-10-20T02:56:30.313Z,70.96
2022-10-20T02:59:06.180Z,70.85
2022-10-20T03:01:35.721Z,70.98
2022-10-20T03:04:09.126Z,71.32
2022-10-20T03:06:40.335Z,71.42
2022-10-20T03:09:10.305Z,71.40
2022-10-20T03:11:42.808Z,71.27
2022-10-20T03:14:13.647Z,71.54
2022-10-20T03:19:38.478Z,72.19
2022-10-20T03:22:10.064Z,71.82
2022-10-20T03:24:39.744Z,72.00
2022-10-20T03:27:08.900Z,72.03
2022-10-20T03:29:38.142Z,72.35
2022-10-20T03:32:07.529Z,72.26
2022-10-20T03:34:39.175Z,72.48
2022-10-20T03:37:08.267Z,72.30
2022-10-20T03:39:37.440Z,72.23
2022-10-20T03:42:07.681Z,72.18
2022-10-20T03:44:50.271Z,72.65
2022-10-20T03:47:21.302Z,72.69
2022-10-20T03:49:54.528Z,72.87
2022-10-20T03:52:29.695Z,72.61
2022-10-20T03:55:11.440Z,72.84
2022-10-20T03:57:40.685Z,72.43
2022-10-20T04:00:19.793Z,72.87
2022-10-20T04:02:50.041Z,72.71
2022-10-20T04:05:23.209Z,73.08
2022-10-20T04:07:52.394Z,73.07
2022-10-20T04:10:27.179Z,73.11
2022-10-20T04:13:03.285Z,73.24
2022-10-20T04:18:37.627Z,73.20
2022-10-20T04:21:12.192Z,73.70
2022-10-20T04:23:58.199Z,74.18
2022-10-20T04:26:30.237Z,73.60
2022-10-20T04:32:25.659Z,73.65
2022-10-20T04:34:54.790Z,73.77
2022-10-20T04:37:27.274Z,74.10
2022-10-20T04:39:58.533Z,74.11
2022-10-20T04:42:27.062Z,74.25
2022-10-20T04:47:25.545Z,74.08
2022-10-20T04:49:53.088Z,74.24
2022-10-20T04:52:22.095Z,74.16
2022-10-20T04:54:54.296Z,74.48
2022-10-20T04:57:21.884Z,74.78
2022-10-20T05:03:15.160Z,74.52
2022-10-20T05:06:05.670Z,74.35
2022-10-20T05:41:20.120Z,75.89
2022-10-20T05:53:24.721Z,75.72
2022-10-20T05:56:21.271Z,74.97
2022-10-20T05:58:58.933Z,75.70
2022-10-20T06:10:13.465Z,75.57
2022-10-20T06:13:31.576Z,75.77
2022-10-20T06:25:01.668Z,75.45
2022-10-20T06:27:50.092Z,75.58
2022-10-20T07:35:46.025Z,75.37
2022-10-20T07:38:33.085Z,74.95
2022-10-20T07:41:24.813Z,75.18
2022-10-20T07:44:17.727Z,75.06
2022-10-20T07:54:48.299Z,74.87
2022-10-20T08:00:20.905Z,75.02
2022-10-20T08:03:18.008Z,74.72
2022-10-20T08:06:31.130Z,74.58
2022-10-20T08:12:11.850Z,74.22
2022-10-20T08:14:55.079Z,73.86
2022-10-20T08:44:44.502Z,71.96
2022-10-20T08:50:09.102Z,71.62
2022-10-20T08:52:59.825Z,71.65
2022-10-20T08:55:38.997Z,71.48
2022-10-20T08:58:46.916Z,71.43
2022-10-20T09:05:09.636Z,70.61
2022-10-20T09:40:53.052Z,70.57
2022-10-20T09:43:45.035Z,70.37
2022-10-20T09:46:49.465Z,70.17
2022-10-20T09:49:44.984Z,70.14
2022-10-20T09:52:50.895Z,69.77
2022-10-20T09:58:57.996Z,66.20
2022-10-20T10:05:12.212Z,66.42
2022-10-20T10:08:19.298Z,66.38
2022-10-20T11:10:56.169Z,62.49
2022-10-20T11:13:31.690Z,61.89
2022-10-20T11:16:27.567Z,62.11
2022-10-20T11:19:40.324Z,62.31
2022-10-20T11:22:27.984Z,62.50
2022-10-20T11:25:06.546Z,62.39
2022-10-20T11:27:39.982Z,62.10
2022-10-20T11:30:21.474Z,61.73
2022-10-20T14:53:19.338Z,69.76
2022-10-20T14:55:59.240Z,69.93
2022-10-20T14:58:42.190Z,70.33
2022-10-20T15:01:30.053Z,70.50
2022-10-20T15:06:38.820Z,70.57
2022-10-20T15:09:20.367Z,71.23
2022-10-20T15:11:54.080Z,70.64
2022-10-20T15:14:26.027Z,70.96
2022-10-20T15:16:58.992Z,70.96
2022-10-20T15:51:53.075Z,72.68
2022-10-20T15:54:28.022Z,73.53
2022-10-20T15:59:37.271Z,73.44
2022-10-20T16:02:04.875Z,73.84
2022-10-20T16:04:32.519Z,74.10
2022-10-20T16:07:02.738Z,73.91
2022-10-20T16:25:54.181Z,74.32
2022-10-20T16:28:27.211Z,74.34
2022-10-20T16:31:03.381Z,74.60
2022-10-20T16:33:32.662Z,74.35
2022-10-20T16:36:04.842Z,74.42
2022-10-20T16:38:37.410Z,74.41
2022-10-20T16:41:18.386Z,74.76
2022-10-20T16:43:48.801Z,74.46
2022-10-20T16:48:52.220Z,74.55
2022-10-20T16:51:20.544Z,74.88
2022-10-20T16:53:50.043Z,74.83
2022-10-20T16:56:20.974Z,75.04
2022-10-20T16:58:50.181Z,75.19
2022-10-20T17:01:19.989Z,75.09
2022-10-20T17:03:49.916Z,75.02
2022-10-20T17:06:19.875Z,75.14
2022-10-20T17:08:48.072Z,74.92
2022-10-20T17:11:17.973Z,75.41
2022-10-20T17:13:47.241Z,75.26
